createdAt,value
2018-12-06T00:00:58.076Z,86.51
2018-12-06T00:01:57.803Z,86.7
2018-12-06T00:02:58.035Z,86.41
2018-12-06T00:03:58.015Z,87.17
2018-12-06T00:04:58.006Z,86.79
2018-12-06T00:05:57.983Z,87.08
2018-12-06T00:06:57.965Z,89.16
2018-12-06T00:07:57.947Z,87.93
2018-12-06T00:08:57.928Z,87.17
2018-12-06T00:09:57.912Z,87.46
2018-12-06T00:10:57.645Z,88.02
2018-12-06T00:11:57.880Z,87.84
2018-12-06T00:12:57.862Z,88.31
2018-12-06T00:13:57.844Z,88.78
2018-12-06T00:14:57.826Z,87.27
2018-12-06T00:15:57.810Z,85.66
2018-12-06T00:16:57.790Z,86.51
2018-12-06T00:17:57.772Z,87.55
2018-12-06T00:18:57.756Z,87.36
2018-12-06T00:19:57.491Z,87.84
2018-12-06T00:20:57.743Z,88.59
2018-12-06T00:21:57.703Z,89.54
2018-12-06T00:22:57.688Z,90.2
2018-12-06T00:23:57.669Z,90.01
2018-12-06T00:24:57.648Z,89.44
2018-12-06T00:25:57.634Z,89.63
2018-12-06T00:26:57.658Z,89.92
2018-12-06T00:27:57.602Z,90.01
2018-12-06T00:28:57.336Z,89.16
2018-12-06T00:29:57.564Z,89.92
2018-12-06T00:30:57.553Z,89.63
2018-12-06T00:31:57.531Z,90.01
2018-12-06T00:32:57.264Z,90.2
2018-12-06T00:33:57.496Z,89.63
2018-12-06T00:34:57.479Z,88.12
2018-12-06T00:35:57.460Z,88.31
2018-12-06T00:36:57.200Z,89.16
2018-12-06T00:37:57.426Z,90.48
2018-12-06T00:38:57.412Z,91.43
2018-12-06T00:39:57.409Z,92.57
2018-12-06T00:40:57.378Z,92.57
2018-12-06T00:41:57.355Z,92.85
2018-12-06T00:42:57.339Z,93.94
2018-12-06T00:43:57.324Z,95.17
2018-12-06T00:44:57.307Z,95.93
2018-12-06T00:45:57.288Z,95.97
2018-12-06T00:46:57.269Z,95.69
2018-12-06T00:47:57.252Z,98.06
2018-12-06T00:48:57.235Z,97.53
2018-12-06T00:49:57.217Z,97.34
2018-12-06T00:50:57.200Z,96.97
2018-12-06T00:51:57.181Z,98.58
2018-12-06T00:52:57.164Z,98.01
2018-12-06T00:53:57.149Z,98.58
2018-12-06T00:54:57.128Z,99.99
2018-12-06T00:55:57.116Z,99.62
2018-12-06T00:56:56.848Z,99.99
2018-12-06T00:57:57.076Z,99.99
2018-12-06T00:58:57.060Z,99.99
2018-12-06T00:59:57.041Z,99.33
2018-12-06T01:00:56.780Z,99.8
2018-12-06T01:01:57.020Z,99.99
2018-12-06T01:02:56.989Z,99.99
2018-12-06T01:03:57.059Z,99.99
2018-12-06T01:04:56.954Z,99.99
2018-12-06T01:05:56.937Z,99.99
2018-12-06T01:06:56.922Z,99.99
2018-12-06T01:07:56.903Z,99.99
2018-12-06T01:08:56.891Z,99.99
2018-12-06T01:09:56.871Z,99.99
2018-12-06T01:10:56.856Z,99.99
2018-12-06T01:11:56.833Z,99.99
2018-12-06T01:12:56.813Z,99.99
2018-12-06T01:13:56.796Z,99.99
2018-12-06T01:14:56.790Z,99.99
2018-12-06T01:15:56.514Z,99.99
2018-12-06T01:16:56.746Z,99.99
2018-12-06T01:17:56.479Z,99.99
2018-12-06T01:18:56.709Z,99.99
2018-12-06T01:19:56.691Z,99.99
2018-12-06T01:20:56.674Z,99.99
2018-12-06T01:21:56.657Z,99.99
2018-12-06T01:22:56.643Z,99.99
2018-12-06T01:23:56.622Z,99.99
2018-12-06T01:24:56.606Z,99.99
2018-12-06T01:25:56.585Z,99.99
2018-12-06T01:26:56.569Z,99.99
2018-12-06T01:27:56.550Z,99.99
2018-12-06T01:28:56.534Z,99.99
2018-12-06T01:29:56.516Z,99.99
2018-12-06T01:30:56.252Z,99.99
2018-12-06T01:31:56.231Z,99.99
2018-12-06T01:32:56.478Z,99.99
2018-12-06T01:33:56.447Z,99.99
2018-12-06T01:34:56.426Z,99.99
2018-12-06T01:35:56.407Z,99.99
2018-12-06T01:36:56.390Z,99.99
2018-12-06T01:37:56.375Z,99.99
2018-12-06T01:38:56.357Z,99.99
2018-12-06T01:39:56.336Z,99.99
2018-12-06T01:40:56.322Z,99.99
2018-12-06T01:41:56.303Z,99.99
2018-12-06T01:42:56.287Z,99.99
2018-12-06T01:43:56.269Z,99.99
2018-12-06T01:44:56.250Z,99.99
2018-12-06T01:45:56.232Z,99.99
2018-12-06T01:46:55.966Z,99.99
2018-12-06T01:47:56.195Z,99.99
2018-12-06T01:48:56.179Z,99.99
2018-12-06T01:49:55.913Z,99.99
2018-12-06T01:50:56.144Z,99.99
2018-12-06T01:51:56.125Z,99.99
2018-12-06T01:52:56.185Z,99.99
2018-12-06T01:53:55.844Z,99.99
2018-12-06T01:54:56.074Z,99.99
2018-12-06T01:55:56.054Z,99.99
2018-12-06T01:56:56.040Z,99.99
2018-12-06T01:57:56.019Z,99.99
2018-12-06T01:58:56.002Z,99.99
2018-12-06T01:59:55.986Z,99.99
2018-12-06T02:00:55.969Z,99.99
2018-12-06T02:01:55.947Z,99.99
2018-12-06T02:02:55.931Z,99.99
2018-12-06T02:03:55.914Z,99.99
2018-12-06T02:04:55.893Z,99.99
2018-12-06T02:05:55.876Z,99.99
2018-12-06T02:06:55.861Z,99.99
2018-12-06T02:07:55.844Z,99.99
2018-12-06T02:08:55.825Z,99.99
2018-12-06T02:09:55.817Z,99.99
2018-12-06T02:10:55.789Z,99.99
2018-12-06T02:11:55.773Z,99.99
2018-12-06T02:12:55.754Z,99.99
2018-12-06T02:13:55.736Z,99.99
2018-12-06T02:14:55.781Z,99.99
2018-12-06T02:15:55.702Z,99.99
2018-12-06T02:16:55.683Z,99.99
2018-12-06T02:17:55.664Z,99.99
2018-12-06T02:18:55.647Z,99.99
2018-12-06T02:19:55.641Z,99.99
2018-12-06T02:20:55.365Z,99.99
2018-12-06T02:21:55.595Z,99.99
2018-12-06T02:22:55.576Z,99.99
2018-12-06T02:23:55.560Z,99.99
2018-12-06T02:24:55.542Z,99.99
2018-12-06T02:25:55.527Z,99.99
2018-12-06T02:26:55.506Z,99.99
2018-12-06T02:27:55.491Z,99.99
2018-12-06T02:28:55.470Z,99.99
2018-12-06T02:29:55.455Z,99.99
2018-12-06T02:30:55.450Z,99.99
2018-12-06T02:31:55.421Z,99.99
2018-12-06T02:32:55.404Z,99.99
2018-12-06T02:33:55.395Z,99.9
2018-12-06T02:34:55.367Z,99.05
2018-12-06T02:35:55.349Z,99.05
2018-12-06T02:36:55.332Z,98.58
2018-12-06T02:37:55.317Z,99.33
2018-12-06T02:38:55.297Z,99.48
2018-12-06T02:39:55.276Z,99.99
2018-12-06T02:40:55.267Z,99.99
2018-12-06T02:41:55.244Z,99.99
2018-12-06T02:42:55.227Z,99.33
2018-12-06T02:43:55.206Z,99.99
2018-12-06T02:44:55.191Z,99.71
2018-12-06T02:45:54.928Z,99.99
2018-12-06T02:46:55.179Z,99.99
2018-12-06T02:47:55.135Z,99.33
2018-12-06T02:48:55.118Z,98.29
2018-12-06T02:49:55.104Z,98.48
2018-12-06T02:50:55.084Z,98.96
2018-12-06T02:51:55.066Z,98.77
2018-12-06T02:52:55.050Z,99.33
2018-12-06T02:53:55.030Z,99.43
2018-12-06T02:54:55.012Z,99.71
2018-12-06T02:55:54.998Z,98.96
2018-12-06T02:56:54.979Z,98.39
2018-12-06T02:57:54.712Z,98.29
2018-12-06T02:58:54.994Z,98.2
2018-12-06T02:59:54.928Z,99.05
2018-12-06T03:00:54.994Z,99.99
2018-12-06T03:01:54.891Z,99.99
2018-12-06T03:02:55.023Z,99.8
2018-12-06T03:03:54.856Z,99.8
2018-12-06T03:04:54.837Z,99.99
2018-12-06T03:05:54.820Z,99.99
2018-12-06T03:06:54.562Z,99.99
2018-12-06T03:07:54.783Z,99.99
2018-12-06T03:08:54.776Z,99.99
2018-12-06T03:09:54.754Z,99.99
2018-12-06T03:10:54.736Z,99.99
2018-12-06T03:11:54.718Z,99.99
2018-12-06T03:12:54.699Z,99.99
2018-12-06T03:13:54.679Z,99.99
2018-12-06T03:14:54.671Z,99.99
2018-12-06T03:15:54.645Z,99.99
2018-12-06T03:16:54.633Z,99.99
2018-12-06T03:17:54.610Z,99.99
2018-12-06T03:18:54.601Z,99.99
2018-12-06T03:19:54.579Z,99.99
2018-12-06T03:20:54.568Z,99.99
2018-12-06T03:21:54.556Z,99.99
2018-12-06T03:22:54.672Z,99.99
2018-12-06T03:23:54.258Z,99.99
2018-12-06T03:24:54.499Z,99.99
2018-12-06T03:25:54.554Z,99.99
2018-12-06T03:26:54.452Z,99.99
2018-12-06T03:27:54.433Z,99.99
2018-12-06T03:28:54.419Z,99.99
2018-12-06T03:29:54.397Z,99.99
2018-12-06T03:30:54.391Z,99.99
2018-12-06T03:31:54.397Z,99.99
2018-12-06T03:32:54.363Z,99.99
2018-12-06T03:33:54.368Z,99.99
2018-12-06T03:34:54.062Z,99.99
2018-12-06T03:35:54.297Z,99.99
2018-12-06T03:36:54.277Z,99.99
2018-12-06T03:37:54.258Z,99.99
2018-12-06T03:38:53.994Z,99.99
2018-12-06T03:39:54.224Z,99.99
2018-12-06T03:40:54.205Z,99.99
2018-12-06T03:41:54.194Z,99.99
2018-12-06T03:42:54.181Z,99.99
2018-12-06T03:43:53.912Z,99.99
2018-12-06T03:44:54.140Z,99.99
2018-12-06T03:45:54.123Z,99.99
2018-12-06T03:46:54.101Z,99.99
2018-12-06T03:47:54.089Z,99.99
2018-12-06T03:48:54.066Z,99.99
2018-12-06T03:49:54.058Z,99.99
2018-12-06T03:50:54.035Z,99.99
2018-12-06T03:51:54.016Z,99.99
2018-12-06T03:52:54.007Z,99.99
2018-12-06T03:53:53.980Z,99.99
2018-12-06T03:54:53.970Z,99.99
2018-12-06T03:55:53.945Z,99.99
2018-12-06T03:56:53.931Z,99.99
2018-12-06T03:57:53.915Z,99.99
2018-12-06T03:58:53.894Z,99.99
2018-12-06T03:59:53.884Z,99.99
2018-12-06T04:00:53.859Z,99.99
2018-12-06T04:01:53.595Z,99.99
2018-12-06T04:02:53.684Z,99.99
2018-12-06T04:03:53.805Z,99.99
2018-12-06T04:04:53.787Z,99.99
2018-12-06T04:05:53.777Z,99.99
2018-12-06T04:06:53.761Z,99.99
2018-12-06T04:07:53.737Z,99.99
2018-12-06T04:08:53.479Z,99.99
2018-12-06T04:09:53.718Z,99.99
2018-12-06T04:10:53.692Z,99.99
2018-12-06T04:11:53.674Z,99.99
2018-12-06T04:12:53.671Z,99.99
2018-12-06T04:13:53.685Z,99.99
2018-12-06T04:14:53.370Z,99.99
2018-12-06T04:15:53.609Z,99.99
2018-12-06T04:16:53.596Z,99.99
2018-12-06T04:17:53.565Z,99.99
2018-12-06T04:18:53.549Z,99.99
2018-12-06T04:19:53.529Z,99.99
2018-12-06T04:20:53.604Z,99.99
2018-12-06T04:21:53.493Z,99.99
2018-12-06T04:22:53.480Z,99.99
2018-12-06T04:23:53.460Z,99.99
2018-12-06T04:24:53.447Z,99.99
2018-12-06T04:25:53.430Z,99.99
2018-12-06T04:26:53.410Z,99.99
2018-12-06T04:27:53.405Z,99.99
2018-12-06T04:28:53.525Z,99.99
2018-12-06T04:29:53.359Z,99.99
2018-12-06T04:30:53.341Z,99.99
2018-12-06T04:31:53.321Z,99.99
2018-12-06T04:32:53.307Z,99.99
2018-12-06T04:33:53.285Z,99.99
2018-12-06T04:34:53.290Z,99.99
2018-12-06T04:35:53.250Z,99.99
2018-12-06T04:36:53.234Z,99.99
2018-12-06T04:37:53.229Z,99.99
2018-12-06T04:38:53.202Z,99.99
2018-12-06T04:39:52.943Z,99.99
2018-12-06T04:40:53.163Z,99.99
2018-12-06T04:41:53.238Z,99.99
2018-12-06T04:42:53.132Z,99.99
2018-12-06T04:43:53.133Z,99.99
2018-12-06T04:44:53.096Z,99.99
2018-12-06T04:45:53.078Z,99.99
2018-12-06T04:46:53.058Z,99.99
2018-12-06T04:47:53.045Z,99.99
2018-12-06T04:48:53.024Z,99.99
2018-12-06T04:49:53.008Z,99.99
2018-12-06T04:50:53.011Z,99.99
2018-12-06T04:51:52.974Z,99.99
2018-12-06T04:52:52.956Z,99.99
2018-12-06T04:53:52.943Z,99.99
2018-12-06T04:54:52.927Z,99.99
2018-12-06T04:55:52.908Z,99.99
2018-12-06T04:56:52.890Z,99.99
2018-12-06T04:57:52.880Z,99.99
2018-12-06T04:58:52.853Z,99.99
2018-12-06T04:59:52.838Z,99.99
2018-12-06T05:00:52.576Z,99.99
2018-12-06T05:01:52.800Z,99.99
2018-12-06T05:02:52.783Z,99.99
2018-12-06T05:03:52.767Z,99.99
2018-12-06T05:04:52.750Z,99.99
2018-12-06T05:05:52.729Z,99.99
2018-12-06T05:06:52.713Z,99.99
2018-12-06T05:07:52.695Z,99.99
2018-12-06T05:08:52.677Z,99.99
2018-12-06T05:09:52.412Z,99.99
2018-12-06T05:10:52.645Z,99.99
2018-12-06T05:11:52.627Z,99.99
2018-12-06T05:12:52.609Z,99.99
2018-12-06T05:13:52.596Z,99.99
2018-12-06T05:14:52.575Z,99.99
2018-12-06T05:15:52.557Z,99.99
2018-12-06T05:16:52.542Z,99.99
2018-12-06T05:17:52.523Z,99.99
2018-12-06T05:18:52.584Z,99.99
2018-12-06T05:19:52.487Z,99.99
2018-12-06T05:20:52.221Z,99.99
2018-12-06T05:21:52.453Z,99.99
2018-12-06T05:22:52.437Z,99.99
2018-12-06T05:23:52.172Z,99.99
2018-12-06T05:24:52.405Z,99.99
2018-12-06T05:25:52.135Z,99.99
2018-12-06T05:26:52.367Z,99.99
2018-12-06T05:27:52.350Z,99.99
2018-12-06T05:28:52.333Z,99.99
2018-12-06T05:29:52.317Z,99.99
2018-12-06T05:30:52.300Z,99.99
2018-12-06T05:31:52.282Z,99.99
2018-12-06T05:32:52.264Z,99.99
2018-12-06T05:33:52.245Z,99.99
2018-12-06T05:34:52.232Z,99.99
2018-12-06T05:35:52.210Z,99.99
2018-12-06T05:36:52.194Z,99.99
2018-12-06T05:37:52.177Z,99.99
2018-12-06T05:38:52.164Z,99.99
2018-12-06T05:39:51.896Z,99.99
2018-12-06T05:40:52.126Z,99.99
2018-12-06T05:41:52.110Z,99.99
2018-12-06T05:42:52.097Z,99.99
2018-12-06T05:43:52.079Z,99.99
2018-12-06T05:44:52.356Z,99.99
2018-12-06T05:45:52.041Z,99.99
2018-12-06T05:46:52.018Z,99.99
2018-12-06T05:47:51.759Z,99.99
2018-12-06T05:48:51.985Z,99.99
2018-12-06T05:49:51.970Z,99.99
2018-12-06T05:50:51.955Z,99.99
2018-12-06T05:51:51.932Z,99.99
2018-12-06T05:52:51.917Z,99.99
2018-12-06T05:53:51.655Z,99.99
2018-12-06T05:54:51.632Z,99.99
2018-12-06T05:55:51.865Z,99.99
2018-12-06T05:56:51.847Z,99.99
2018-12-06T05:57:51.829Z,99.99
2018-12-06T05:58:51.812Z,99.99
2018-12-06T05:59:51.795Z,99.99
2018-12-06T06:00:51.774Z,99.99
2018-12-06T06:01:51.764Z,99.99
2018-12-06T06:02:51.743Z,99.99
2018-12-06T06:03:51.725Z,99.99
2018-12-06T06:04:51.708Z,99.99
2018-12-06T06:05:51.691Z,99.99
2018-12-06T06:06:51.686Z,99.99
2018-12-06T06:07:51.657Z,99.99
2018-12-06T06:08:51.640Z,99.99
2018-12-06T06:09:51.622Z,99.99
2018-12-06T06:10:51.604Z,99.99
2018-12-06T06:11:51.589Z,99.99
2018-12-06T06:12:51.568Z,99.99
2018-12-06T06:13:51.305Z,99.99
2018-12-06T06:14:51.539Z,99.99
2018-12-06T06:15:51.516Z,99.99
2018-12-06T06:16:51.497Z,99.99
2018-12-06T06:17:51.482Z,99.99
2018-12-06T06:18:51.467Z,99.99
2018-12-06T06:19:51.455Z,99.99
2018-12-06T06:20:51.429Z,99.99
2018-12-06T06:21:51.420Z,99.99
2018-12-06T06:22:51.392Z,99.99
2018-12-06T06:23:51.379Z,99.99
2018-12-06T06:24:51.362Z,99.99
2018-12-06T06:25:51.344Z,99.99
2018-12-06T06:26:51.325Z,99.99
2018-12-06T06:27:51.307Z,99.99
2018-12-06T06:28:51.042Z,99.99
2018-12-06T06:29:51.276Z,99.99
2018-12-06T06:30:51.334Z,99.99
2018-12-06T06:31:51.238Z,99.99
2018-12-06T06:32:51.223Z,99.99
2018-12-06T06:33:51.267Z,99.99
2018-12-06T06:34:51.190Z,99.99
2018-12-06T06:35:51.174Z,99.99
2018-12-06T06:36:51.154Z,99.99
2018-12-06T06:37:51.138Z,99.99
2018-12-06T06:38:51.121Z,99.99
2018-12-06T06:39:51.100Z,99.99
2018-12-06T06:40:50.833Z,99.99
2018-12-06T06:41:51.131Z,99.99
2018-12-06T06:42:51.052Z,99.99
2018-12-06T06:43:51.035Z,99.99
2018-12-06T06:44:51.014Z,99.99
2018-12-06T06:45:50.995Z,99.99
2018-12-06T06:46:50.979Z,99.99
2018-12-06T06:47:50.966Z,99.99
2018-12-06T06:48:50.961Z,99.99
2018-12-06T06:49:50.932Z,99.99
2018-12-06T06:50:50.915Z,99.99
2018-12-06T06:51:50.895Z,99.99
2018-12-06T06:52:51.750Z,99.99
2018-12-06T06:53:50.861Z,99.99
2018-12-06T06:54:50.843Z,99.99
2018-12-06T06:55:50.824Z,99.99
2018-12-06T06:56:50.807Z,99.99
2018-12-06T06:57:50.791Z,99.99
2018-12-06T06:58:50.776Z,99.99
2018-12-06T06:59:50.758Z,99.99
2018-12-06T07:00:50.494Z,99.99
2018-12-06T07:01:50.724Z,99.99
2018-12-06T07:02:50.706Z,99.99
2018-12-06T07:03:50.689Z,99.99
2018-12-06T07:04:50.672Z,99.99
2018-12-06T07:05:50.654Z,99.99
2018-12-06T07:06:50.636Z,99.99
2018-12-06T07:07:50.623Z,99.99
2018-12-06T07:08:50.606Z,99.99
2018-12-06T07:09:50.585Z,99.99
2018-12-06T07:10:50.568Z,99.99
2018-12-06T07:11:50.302Z,99.99
2018-12-06T07:12:50.535Z,99.99
2018-12-06T07:13:50.516Z,99.99
2018-12-06T07:14:50.500Z,99.99
2018-12-06T07:15:50.483Z,99.99
2018-12-06T07:16:50.218Z,99.99
2018-12-06T07:17:50.453Z,99.99
2018-12-06T07:18:50.433Z,99.99
2018-12-06T07:19:50.414Z,99.99
2018-12-06T07:20:50.397Z,99.99
2018-12-06T07:21:50.382Z,99.99
2018-12-06T07:22:50.365Z,99.99
2018-12-06T07:23:50.100Z,99.99
2018-12-06T07:24:50.333Z,99.99
2018-12-06T07:25:50.314Z,99.99
2018-12-06T07:26:50.361Z,99.99
2018-12-06T07:27:50.292Z,99.99
2018-12-06T07:28:50.280Z,99.99
2018-12-06T07:29:51.052Z,99.99
2018-12-06T07:30:50.230Z,99.99
2018-12-06T07:31:50.213Z,99.99
2018-12-06T07:32:50.195Z,99.99
2018-12-06T07:33:50.181Z,99.99
2018-12-06T07:34:50.167Z,99.99
2018-12-06T07:35:50.145Z,99.99
2018-12-06T07:36:49.879Z,99.99
2018-12-06T07:37:50.111Z,99.99
2018-12-06T07:38:50.104Z,99.99
2018-12-06T07:39:50.078Z,99.99
2018-12-06T07:40:50.062Z,99.99
2018-12-06T07:41:50.045Z,99.99
2018-12-06T07:42:50.034Z,99.99
2018-12-06T07:43:50.013Z,99.99
2018-12-06T07:44:49.996Z,99.99
2018-12-06T07:45:49.979Z,99.99
2018-12-06T07:46:49.965Z,99.99
2018-12-06T07:47:49.946Z,99.99
2018-12-06T07:48:49.691Z,99.99
2018-12-06T07:49:49.916Z,99.99
2018-12-06T07:50:49.897Z,99.99
2018-12-06T07:51:49.880Z,99.99
2018-12-06T07:52:49.863Z,99.99
2018-12-06T07:53:49.847Z,99.99
2018-12-06T07:54:49.834Z,99.99
2018-12-06T07:55:49.818Z,99.99
2018-12-06T07:56:49.798Z,99.99
2018-12-06T07:57:49.779Z,99.99
2018-12-06T07:58:49.775Z,99.99
2018-12-06T07:59:49.751Z,99.99
2018-12-06T08:00:49.735Z,99.99
2018-12-06T08:01:49.719Z,99.99
2018-12-06T08:02:49.701Z,99.99
2018-12-06T08:03:49.683Z,99.99
2018-12-06T08:04:49.758Z,99.99
2018-12-06T08:05:49.650Z,99.99
2018-12-06T08:06:49.389Z,99.99
2018-12-06T08:07:49.618Z,99.99
2018-12-06T08:08:49.607Z,99.99
2018-12-06T08:09:49.587Z,99.99
2018-12-06T08:10:49.569Z,99.99
2018-12-06T08:11:49.555Z,99.99
2018-12-06T08:12:49.536Z,99.99
2018-12-06T08:13:49.518Z,99.99
2018-12-06T08:14:49.254Z,99.99
2018-12-06T08:15:49.486Z,99.99
2018-12-06T08:16:49.469Z,99.99
2018-12-06T08:17:49.456Z,99.99
2018-12-06T08:18:49.438Z,99.99
2018-12-06T08:19:49.482Z,99.99
2018-12-06T08:20:49.412Z,99.99
2018-12-06T08:21:49.388Z,99.99
2018-12-06T08:22:49.373Z,99.99
2018-12-06T08:23:49.355Z,99.99
2018-12-06T08:24:49.339Z,99.99
2018-12-06T08:25:49.323Z,99.99
2018-12-06T08:26:49.305Z,99.99
2018-12-06T08:27:49.290Z,99.99
2018-12-06T08:28:49.272Z,99.99
2018-12-06T08:29:49.260Z,99.99
2018-12-06T08:30:49.242Z,99.99
2018-12-06T08:31:49.225Z,99.99
2018-12-06T08:32:49.211Z,99.99
2018-12-06T08:33:49.194Z,99.99
2018-12-06T08:34:49.179Z,99.99
2018-12-06T08:35:49.159Z,99.99
2018-12-06T08:36:49.147Z,99.99
2018-12-06T08:37:49.127Z,99.99
2018-12-06T08:38:49.110Z,99.99
2018-12-06T08:39:49.093Z,99.99
2018-12-06T08:40:49.077Z,99.99
2018-12-06T08:41:49.059Z,99.99
2018-12-06T08:42:49.046Z,99.99
2018-12-06T08:43:48.783Z,99.99
2018-12-06T08:44:49.012Z,99.99
2018-12-06T08:45:48.994Z,99.99
2018-12-06T08:46:48.978Z,99.99
2018-12-06T08:47:48.963Z,99.99
2018-12-06T08:48:48.947Z,99.99
2018-12-06T08:49:49.029Z,99.99
2018-12-06T08:50:48.913Z,99.99
2018-12-06T08:51:48.897Z,99.99
2018-12-06T08:52:48.881Z,99.99
2018-12-06T08:53:48.865Z,99.99
2018-12-06T08:54:48.854Z,99.99
2018-12-06T08:55:48.832Z,99.99
2018-12-06T08:56:48.818Z,99.99
2018-12-06T08:57:48.800Z,99.99
2018-12-06T08:58:49.265Z,99.99
2018-12-06T08:59:48.768Z,99.99
2018-12-06T09:00:48.753Z,99.99
2018-12-06T09:01:48.739Z,99.99
2018-12-06T09:02:48.731Z,99.99
2018-12-06T09:03:48.703Z,99.99
2018-12-06T09:04:48.688Z,99.99
2018-12-06T09:05:48.425Z,99.99
2018-12-06T09:06:48.662Z,99.99
2018-12-06T09:07:48.638Z,99.99
2018-12-06T09:08:48.625Z,99.99
2018-12-06T09:09:48.608Z,99.99
2018-12-06T09:10:54.157Z,99.99
2018-12-06T09:11:48.578Z,99.99
2018-12-06T09:12:48.315Z,99.99
2018-12-06T09:13:48.544Z,99.99
2018-12-06T09:14:48.529Z,99.99
2018-12-06T09:15:48.515Z,99.99
2018-12-06T09:16:48.498Z,99.99
2018-12-06T09:17:48.481Z,99.99
2018-12-06T09:18:48.466Z,99.99
2018-12-06T09:19:48.449Z,99.99
2018-12-06T09:20:48.435Z,99.99
2018-12-06T09:21:48.419Z,99.99
2018-12-06T09:22:48.404Z,99.99
2018-12-06T09:23:48.389Z,99.99
2018-12-06T09:24:48.372Z,99.99
2018-12-06T09:25:48.836Z,99.99
2018-12-06T09:26:48.091Z,99.99
2018-12-06T09:27:48.327Z,99.99
2018-12-06T09:28:48.310Z,99.99
2018-12-06T09:29:48.294Z,99.99
2018-12-06T09:30:48.279Z,99.99
2018-12-06T09:31:48.267Z,99.99
2018-12-06T09:32:48.246Z,99.99
2018-12-06T09:33:48.240Z,99.99
2018-12-06T09:34:48.218Z,99.99
2018-12-06T09:35:48.204Z,99.99
2018-12-06T09:36:48.185Z,99.99
2018-12-06T09:37:48.184Z,99.99
2018-12-06T09:38:48.158Z,99.99
2018-12-06T09:39:48.142Z,99.99
2018-12-06T09:40:48.125Z,99.99
2018-12-06T09:41:48.110Z,99.99
2018-12-06T09:42:48.097Z,99.99
2018-12-06T09:43:47.834Z,99.99
2018-12-06T09:44:48.064Z,99.99
2018-12-06T09:45:48.052Z,99.99
2018-12-06T09:46:48.039Z,99.99
2018-12-06T09:47:48.020Z,99.99
2018-12-06T09:48:48.005Z,99.99
2018-12-06T09:49:47.992Z,99.99
2018-12-06T09:50:48.019Z,99.99
2018-12-06T09:51:47.961Z,99.99
2018-12-06T09:52:47.945Z,99.99
2018-12-06T09:53:47.932Z,99.99
2018-12-06T09:54:47.915Z,99.99
2018-12-06T09:55:47.653Z,99.99
2018-12-06T09:56:47.899Z,99.99
2018-12-06T09:57:47.872Z,99.99
2018-12-06T09:58:47.858Z,99.99
2018-12-06T09:59:49.405Z,99.99
2018-12-06T10:00:47.831Z,99.99
2018-12-06T10:01:47.819Z,99.99
2018-12-06T10:02:47.550Z,99.99
2018-12-06T10:03:47.785Z,99.99
2018-12-06T10:04:47.770Z,99.99
2018-12-06T10:05:47.757Z,99.99
2018-12-06T10:06:47.742Z,99.99
2018-12-06T10:07:47.728Z,99.99
2018-12-06T10:08:47.714Z,99.99
2018-12-06T10:09:47.697Z,99.99
2018-12-06T10:10:47.686Z,99.99
2018-12-06T10:11:47.424Z,99.99
2018-12-06T10:12:47.654Z,99.99
2018-12-06T10:13:47.643Z,99.99
2018-12-06T10:14:47.628Z,99.99
2018-12-06T10:15:47.613Z,99.99
2018-12-06T10:16:47.603Z,99.99
2018-12-06T10:17:47.589Z,99.99
2018-12-06T10:18:47.577Z,99.99
2018-12-06T10:19:47.557Z,99.99
2018-12-06T10:20:47.546Z,99.99
2018-12-06T10:21:47.528Z,99.99
2018-12-06T10:22:47.524Z,99.99
2018-12-06T10:23:47.504Z,99.99
2018-12-06T10:24:47.487Z,99.99
2018-12-06T10:25:47.474Z,99.99
2018-12-06T10:26:47.459Z,99.99
2018-12-06T10:27:47.445Z,99.99
2018-12-06T10:28:47.433Z,99.99
2018-12-06T10:29:47.414Z,99.99
2018-12-06T10:30:47.402Z,99.99
2018-12-06T10:31:47.140Z,99.99
2018-12-06T10:32:47.127Z,99.99
2018-12-06T10:33:47.112Z,99.99
2018-12-06T10:34:53.329Z,99.99
2018-12-06T10:35:47.332Z,99.99
2018-12-06T10:36:47.318Z,99.99
2018-12-06T10:37:47.307Z,99.99
2018-12-06T10:38:47.292Z,99.99
2018-12-06T10:39:47.284Z,99.99
2018-12-06T10:40:47.267Z,99.99
2018-12-06T10:41:47.082Z,99.99
2018-12-06T10:42:47.236Z,99.99
2018-12-06T10:43:46.983Z,99.99
2018-12-06T10:44:47.211Z,99.99
2018-12-06T10:45:47.198Z,99.99
2018-12-06T10:46:47.184Z,99.99
2018-12-06T10:47:47.172Z,99.99
2018-12-06T10:48:47.158Z,99.99
2018-12-06T10:49:47.146Z,99.99
2018-12-06T10:50:47.130Z,99.99
2018-12-06T10:51:47.118Z,99.99
2018-12-06T10:52:47.104Z,99.99
2018-12-06T10:53:47.092Z,99.99
2018-12-06T10:54:47.077Z,99.99
2018-12-06T10:55:47.063Z,99.99
2018-12-06T10:56:47.049Z,99.99
2018-12-06T10:57:47.039Z,99.99
2018-12-06T10:58:47.028Z,99.99
2018-12-06T10:59:47.012Z,99.99
2018-12-06T11:00:47.000Z,99.99
2018-12-06T11:01:46.995Z,99.99
2018-12-06T11:02:46.972Z,99.99
2018-12-06T11:03:46.957Z,99.99
2018-12-06T11:04:46.943Z,99.99
2018-12-06T11:05:46.930Z,99.99
2018-12-06T11:06:46.918Z,99.99
2018-12-06T11:07:46.908Z,99.99
2018-12-06T11:08:46.892Z,99.99
2018-12-06T11:09:46.875Z,99.99
2018-12-06T11:10:46.863Z,99.99
2018-12-06T11:11:46.850Z,99.99
2018-12-06T11:12:46.836Z,99.99
2018-12-06T11:13:46.823Z,99.99
2018-12-06T11:14:46.812Z,99.99
2018-12-06T11:15:46.797Z,99.99
2018-12-06T11:16:46.785Z,99.99
2018-12-06T11:17:46.771Z,99.99
2018-12-06T11:18:46.761Z,99.99
2018-12-06T11:19:46.744Z,99.99
2018-12-06T11:20:46.732Z,99.99
2018-12-06T11:21:46.718Z,99.99
2018-12-06T11:22:46.704Z,99.99
2018-12-06T11:23:47.690Z,99.99
2018-12-06T11:24:46.429Z,99.99
2018-12-06T11:25:46.665Z,99.99
2018-12-06T11:26:46.654Z,99.99
2018-12-06T11:27:46.636Z,99.99
2018-12-06T11:28:46.630Z,99.99
2018-12-06T11:29:46.609Z,99.99
2018-12-06T11:30:46.347Z,99.99
2018-12-06T11:31:46.333Z,99.99
2018-12-06T11:32:46.320Z,99.99
2018-12-06T11:33:46.617Z,99.99
2018-12-06T11:34:46.295Z,99.99
2018-12-06T11:35:46.531Z,99.99
2018-12-06T11:36:46.514Z,99.99
2018-12-06T11:37:46.502Z,99.99
2018-12-06T11:38:46.490Z,99.99
2018-12-06T11:39:46.227Z,99.99
2018-12-06T11:40:46.461Z,99.99
2018-12-06T11:41:46.448Z,99.99
2018-12-06T11:42:46.436Z,99.99
2018-12-06T11:43:46.421Z,99.99
2018-12-06T11:44:46.160Z,99.99
2018-12-06T11:45:46.393Z,99.99
2018-12-06T11:46:46.380Z,99.99
2018-12-06T11:47:46.363Z,99.99
2018-12-06T11:48:46.352Z,99.99
2018-12-06T11:49:46.342Z,99.99
2018-12-06T11:50:46.324Z,99.99
2018-12-06T11:51:46.311Z,99.99
2018-12-06T11:52:46.296Z,99.99
2018-12-06T11:53:46.287Z,99.99
2018-12-06T11:54:46.274Z,99.99
2018-12-06T11:55:46.258Z,99.99
2018-12-06T11:56:46.244Z,99.99
2018-12-06T11:57:46.230Z,99.99
2018-12-06T11:58:46.218Z,99.99
2018-12-06T11:59:46.204Z,99.99
2018-12-06T12:00:45.945Z,99.99
2018-12-06T12:01:46.175Z,99.99
2018-12-06T12:02:46.158Z,99.99
2018-12-06T12:03:46.158Z,99.99
2018-12-06T12:04:46.136Z,99.99
2018-12-06T12:05:46.121Z,99.99
2018-12-06T12:06:46.106Z,99.99
2018-12-06T12:07:46.096Z,99.99
2018-12-06T12:08:46.084Z,99.99
2018-12-06T12:09:46.065Z,99.99
2018-12-06T12:10:46.050Z,99.99
2018-12-06T12:11:46.037Z,99.99
2018-12-06T12:12:46.026Z,99.99
2018-12-06T12:13:45.766Z,99.99
2018-12-06T12:14:45.997Z,99.99
2018-12-06T12:15:45.735Z,99.99
2018-12-06T12:16:45.968Z,99.99
2018-12-06T12:17:46.035Z,99.99
2018-12-06T12:18:45.720Z,99.99
2018-12-06T12:19:45.681Z,99.99
2018-12-06T12:20:45.667Z,99.99
2018-12-06T12:21:45.899Z,99.99
2018-12-06T12:22:45.885Z,99.99
2018-12-06T12:23:45.874Z,99.99
2018-12-06T12:24:45.856Z,99.99
2018-12-06T12:25:45.845Z,99.99
2018-12-06T12:26:45.830Z,99.99
2018-12-06T12:27:45.817Z,99.99
2018-12-06T12:28:45.815Z,99.99
2018-12-06T12:29:45.787Z,99.99
2018-12-06T12:30:45.774Z,99.99
2018-12-06T12:31:45.760Z,99.99
2018-12-06T12:32:45.745Z,99.99
2018-12-06T12:33:45.729Z,99.99
2018-12-06T12:34:45.471Z,99.99
2018-12-06T12:35:45.459Z,99.99
2018-12-06T12:36:45.690Z,99.99
2018-12-06T12:37:45.429Z,99.99
2018-12-06T12:38:45.663Z,99.99
2018-12-06T12:39:45.649Z,99.99
2018-12-06T12:40:45.637Z,99.99
2018-12-06T12:41:45.622Z,99.99
2018-12-06T12:42:45.614Z,99.99
2018-12-06T12:43:45.594Z,99.99
2018-12-06T12:44:45.579Z,99.99
2018-12-06T12:45:45.571Z,99.99
2018-12-06T12:46:45.552Z,99.99
2018-12-06T12:47:45.542Z,99.99
2018-12-06T12:48:45.277Z,99.99
2018-12-06T12:49:45.604Z,99.99
2018-12-06T12:50:45.498Z,99.99
2018-12-06T12:51:45.234Z,99.99
2018-12-06T12:52:45.468Z,99.99